Surface/Precipitation History
01/24/2015 11:16  to  1/25/2015 11:16
Change End Date:
Date/Time
(MST)
Sf
Temp Chem Water Layer Surface Precipitation
Sf Sub Frz Factor Pct Depth IcePct Cond Salin Type Intens Accum Rate
01/25/2015 11:07 Wet 44.2F 31F 32F 95 1% 0.00 in 0% 4 mhos 331 None None - -
01/25/2015 11:01 Wet 43.5F 31F 32F 95 1% 0.00 in 0% 4 mhos 359 None None - -
01/25/2015 10:57 Wet 43.0F 31F 32F 95 1% 0.00 in 0% 4 mhos 369 Yes - - -
01/25/2015 10:47 Wet 41.4F 31F 32F 95 2% 0.00 in 0% 4 mhos 394 Yes - - -
01/25/2015 10:46 Wet 41.2F 31F 32F 95 2% 0.00 in 0% 4 mhos 394 Yes - - -
01/25/2015 10:37 Wet 39.9F 31F 32F 95 2% 0.00 in 0% 4 mhos 412 Yes - - -
01/25/2015 10:31 Wet 39.4F 31F 32F 95 2% 0.00 in 0% 4 mhos 407 Yes - - -
01/25/2015 10:26 Wet 38.3F 31F 32F 95 2% 0.00 in 0% 4 mhos 397 Yes - - -
01/25/2015 10:16 Wet 36.3F 31F 32F 95 1% 0.00 in 0% 4 mhos 358 Yes - - -
01/25/2015 10:16 Wet 36.3F 31F 32F 95 1% 0.00 in 0% 4 mhos 358 Yes - - -
01/25/2015 10:06 Wet 33.3F 31F 31F 95 3% 0.00 in 0% 7 mhos 784 Yes - - -
01/25/2015 10:01 Wet 32.7F 31F 31F 95 3% 0.00 in 0% 7 mhos 743 Yes - - -
01/25/2015 09:56 Chemically Wet 31.5F 31F 31F 95 2% 0.00 in 0% 6 mhos 641 Yes - - -
01/25/2015 09:46 Chemically Wet 30.6F 31F 31F 95 2% - 59% 5 mhos 553 Yes - - -
01/25/2015 09:46 Chemically Wet 30.6F 31F 31F 95 2% - 59% 5 mhos 553 Yes - - -
Date/Time
(MST)
Sf
Temp Chem Water Layer Surface Precipitation
Sf Sub Frz Factor Pct Depth IcePct Cond Salin Type Intens Accum Rate
01/25/2015 09:36 Chemically Wet 30.2F 31F 31F 95 2% - 69% 5 mhos 511 Yes - - -
01/25/2015 09:31 Chemically Wet 30.2F 31F 31F 95 2% - 71% 4 mhos 492 Yes - - -
01/25/2015 09:26 Chemically Wet 30.2F 31F 31F 95 2% - 72% 4 mhos 474 Yes - - -
01/25/2015 09:16 Chemically Wet 30.2F 31F 31F 95 2% - 76% 4 mhos 441 Yes - - -
01/25/2015 09:16 Chemically Wet 30.2F 31F 31F 95 2% - 76% 4 mhos 441 Yes - - -
01/25/2015 09:06 Chemically Wet 29.8F 31F 31F 95 2% - 80% 4 mhos 427 Yes - - -
01/25/2015 09:01 Chemically Wet 30.0F 31F 32F 95 2% - 79% 4 mhos 419 Yes - - -
01/25/2015 08:56 Chemically Wet 30.0F 31F 32F 95 2% - 79% 4 mhos 416 Yes - - -
01/25/2015 08:46 Chemically Wet 29.7F 31F 32F 95 2% - 82% 4 mhos 416 Yes - - -
01/25/2015 08:46 Chemically Wet 29.7F 31F 32F 95 2% - 82% 4 mhos 416 Yes - - -
01/25/2015 08:36 Chemically Wet 29.3F 31F 32F 95 2% - 84% 4 mhos 416 Yes - - -
01/25/2015 08:31 Chemically Wet 29.1F 31F 32F 85 2% - 85% 4 mhos 416 Yes - - -
01/25/2015 08:26 Chemically Wet 29.1F 31F 31F 85 2% - 84% 4 mhos 431 Yes - - -
01/25/2015 08:16 Chemically Wet 29.5F 31F 31F 95 2% - 81% 4 mhos 455 Yes - - -
01/25/2015 08:16 Chemically Wet 29.5F 31F 31F 95 2% - 81% 4 mhos 455 Yes - - -
Date/Time
(MST)
Sf
Temp Chem Water Layer Surface Precipitation
Sf Sub Frz Factor Pct Depth IcePct Cond Salin Type Intens Accum Rate
01/25/2015 08:06 Chemically Wet 29.8F 31F 31F 95 2% - 78% 4 mhos 481 Yes - - -
01/25/2015 08:01 Chemically Wet 29.8F 31F 31F 95 2% - 77% 4 mhos 494 Yes - - -
01/25/2015 07:56 Chemically Wet 30.0F 31F 31F 95 2% - 75% 5 mhos 505 Yes - - -
01/25/2015 07:46 Chemically Wet 30.2F 31F 31F 95 2% - 70% 5 mhos 554 Yes - - -
01/25/2015 07:46 Chemically Wet 30.2F 31F 31F 95 2% - 70% 5 mhos 554 Yes - - -
01/25/2015 07:36 Chemically Wet 30.2F 31F 31F 95 2% - 68% 5 mhos 594 Yes - - -
01/25/2015 07:31 Chemically Wet 30.2F 31F 31F 95 2% - 64% 5 mhos 598 Yes - - -
01/25/2015 07:26 Chemically Wet 30.4F 31F 31F 95 2% - 60% 5 mhos 604 Yes - - -
01/25/2015 07:16 Chemically Wet 30.2F 31F 31F 95 2% - 63% 6 mhos 621 Yes - - -
01/25/2015 07:16 Chemically Wet 30.2F 31F 31F 95 2% - 63% 6 mhos 621 Yes - - -
01/25/2015 07:06 Chemically Wet 30.4F 31F 31F 95 2% - 59% 6 mhos 619 Yes - - -
01/25/2015 07:01 Chemically Wet 30.4F 31F 31F 95 2% - 59% 6 mhos 620 Yes - - -
01/25/2015 06:55 Chemically Wet 29.8F 31F 31F 95 2% - 70% 6 mhos 632 Yes - - -
01/25/2015 06:46 Chemically Wet 30.2F 31F 31F 95 2% - 64% 6 mhos 610 Yes - - -
01/25/2015 06:45 Chemically Wet 30.2F 31F 31F 95 2% - 63% 6 mhos 611 Yes - - -
Date/Time
(MST)
Sf
Temp Chem Water Layer Surface Precipitation
Sf Sub Frz Factor Pct Depth IcePct Cond Salin Type Intens Accum Rate
01/25/2015 06:35 Chemically Wet 30.9F 31F 31F 95 2% - 43% 5 mhos 600 Yes - - -
01/25/2015 06:31 Chemically Wet 31.3F 31F 31F 95 2% - 22% 5 mhos 585 Yes - - -
01/25/2015 06:25 Chemically Wet 31.3F 31F 31F 95 2% - 37% 4 mhos 471 Yes - - -
01/25/2015 06:16 Chemically Wet 31.8F 31F 31F 95 2% 0.00 in 0% 6 mhos 606 Yes - - -
01/25/2015 06:15 Chemically Wet 31.8F 31F 31F 95 2% 0.00 in 0% 6 mhos 607 Yes - - -
01/25/2015 06:05 Wet 32.5F 31F 31F 95 2% 0.00 in 0% 5 mhos 585 Yes - - -
01/25/2015 06:01 Wet 32.5F 31F 31F 95 2% 0.00 in 0% 5 mhos 563 Yes - - -
01/25/2015 05:55 Wet 32.5F 31F 31F 95 2% 0.00 in 0% 6 mhos 612 Yes - - -
01/25/2015 05:46 Wet 32.5F 31F 31F 95 3% 0.00 in 0% 6 mhos 693 Yes - - -
01/25/2015 05:45 Wet 32.5F 31F 31F 95 3% 0.00 in 0% 6 mhos 693 Yes - - -
01/25/2015 05:35 Wet 32.5F 31F 31F 95 3% 0.00 in 0% 6 mhos 686 Yes - - -
01/25/2015 05:31 Wet 32.5F 31F 31F 95 3% 0.00 in 0% 6 mhos 687 Yes - - -
01/25/2015 05:25 Wet 32.5F 31F 31F 95 3% 0.00 in 0% 6 mhos 685 Yes - - -
01/25/2015 05:16 Wet 32.5F 31F 31F 95 3% 0.00 in 0% 6 mhos 676 Yes - - -
01/25/2015 05:15 Wet 32.4F 31F 31F 95 3% 0.00 in 0% 6 mhos 679 Yes - - -
Date/Time
(MST)
Sf
Temp Chem Water Layer Surface Precipitation
Sf Sub Frz Factor Pct Depth IcePct Cond Salin Type Intens Accum Rate
01/25/2015 05:05 Wet 32.2F 31F 31F 95 3% 0.00 in 0% 6 mhos 676 Yes - - -
01/25/2015 05:01 Chemically Wet 32.0F 31F 31F 95 3% 0.00 in 0% 6 mhos 676 Yes - - -
01/25/2015 04:55 Chemically Wet 32.0F 31F 31F 95 3% 0.00 in 0% 6 mhos 669 Yes - - -
01/25/2015 04:46 Wet 32.5F 31F 31F 95 3% 0.00 in 0% 6 mhos 667 Yes - - -
01/25/2015 04:45 Wet 32.5F 31F 31F 95 3% 0.00 in 0% 6 mhos 664 Yes - - -
01/25/2015 04:35 Wet 32.7F 31F 31F 95 3% 0.00 in 0% 6 mhos 652 Yes - - -
01/25/2015 04:31 Wet 33.1F 31F 31F 95 2% 0.00 in 0% 6 mhos 639 Yes - - -
01/25/2015 04:25 Wet 33.4F 31F 31F 95 2% 0.00 in 0% 6 mhos 625 Yes - - -
01/25/2015 04:16 Wet 33.3F 31F 31F 95 2% 0.00 in 0% 6 mhos 598 Yes - - -
01/25/2015 04:15 Wet 33.3F 31F 31F 95 2% 0.00 in 0% 6 mhos 597 Yes - - -
01/25/2015 04:05 Wet 33.6F 31F 31F 95 2% 0.00 in 0% 5 mhos 562 Yes - - -
01/25/2015 04:01 Wet 33.6F 31F 31F 95 2% 0.00 in 0% 5 mhos 552 Yes - - -
01/25/2015 03:55 Wet 33.4F 31F 31F 95 2% 0.00 in 0% 5 mhos 544 Yes - - -
01/25/2015 03:46 Wet 33.6F 31F 31F 95 2% 0.00 in 0% 5 mhos 524 Yes - - -
01/25/2015 03:45 Wet 33.6F 31F 31F 95 2% 0.00 in 0% 5 mhos 524 Yes - - -
Date/Time
(MST)
Sf
Temp Chem Water Layer Surface Precipitation
Sf Sub Frz Factor Pct Depth IcePct Cond Salin Type Intens Accum Rate
01/25/2015 03:35 Wet 34.0F 31F 31F 95 2% 0.00 in 0% 5 mhos 491 Yes - - -
01/25/2015 03:31 Wet 34.0F 31F 31F 95 2% 0.00 in 0% 5 mhos 470 Yes - - -
01/25/2015 03:25 Wet 34.0F 31F 31F 95 2% 0.00 in 0% 4 mhos 439 Yes - - -
01/25/2015 03:16 Wet 33.8F 31F 31F 95 2% 0.00 in 0% 6 mhos 647 Yes - - -
01/25/2015 03:15 Wet 33.8F 31F 31F 95 2% 0.00 in 0% 6 mhos 644 Yes - - -
01/25/2015 03:05 Wet 33.8F 31F 31F 95 2% 0.00 in 0% 6 mhos 644 Yes - - -
01/25/2015 03:01 Wet 33.8F 31F 31F 95 2% 0.00 in 0% 6 mhos 639 Yes - - -
01/25/2015 02:55 Wet 33.8F 31F 31F 95 2% 0.00 in 0% 6 mhos 639 Yes - - -
01/25/2015 02:46 Wet 33.8F 31F 31F 95 2% 0.00 in 0% 6 mhos 637 Yes - - -
01/25/2015 02:45 Wet 33.8F 31F 31F 95 2% 0.00 in 0% 6 mhos 638 Yes - - -
01/25/2015 02:35 Wet 33.8F 31F 31F 95 2% 0.00 in 0% 6 mhos 643 Yes - - -
01/25/2015 02:31 Wet 33.8F 31F 31F 95 2% 0.00 in 0% 6 mhos 638 Yes - - -
01/25/2015 02:24 Wet 33.8F 31F 31F 95 2% 0.00 in 0% 6 mhos 636 Yes - - -
01/25/2015 02:16 Wet 33.8F 31F 31F 95 2% 0.00 in 0% 6 mhos 633 Yes - - -
01/25/2015 02:14 Wet 33.6F 31F 31F 95 2% 0.00 in 0% 6 mhos 632 Yes - - -
Date/Time
(MST)
Sf
Temp Chem Water Layer Surface Precipitation
Sf Sub Frz Factor Pct Depth IcePct Cond Salin Type Intens Accum Rate
01/25/2015 02:04 Wet 33.4F 31F 31F 95 2% 0.00 in 0% 6 mhos 626 Yes - - -
01/25/2015 02:01 Wet 33.3F 31F 31F 95 2% 0.00 in 0% 6 mhos 625 Yes - - -
01/25/2015 01:54 Wet 33.6F 31F 31F 95 2% 0.00 in 0% 6 mhos 623 Yes - - -
01/25/2015 01:46 Wet 33.4F 31F 31F 95 2% 0.00 in 0% 6 mhos 614 Yes - - -
01/25/2015 01:44 Wet 33.6F 31F 31F 95 2% 0.00 in 0% 6 mhos 614 Yes - - -
01/25/2015 01:34 Wet 33.6F 31F 31F 95 2% 0.00 in 0% 6 mhos 596 Yes - - -
01/25/2015 01:31 Wet 33.4F 31F 31F 95 2% 0.00 in 0% 6 mhos 596 Yes - - -
01/25/2015 01:24 Wet 33.3F 31F 31F 95 2% 0.00 in 0% 6 mhos 583 Yes - - -
01/25/2015 01:16 Wet 33.1F 31F 31F 95 2% 0.00 in 0% 5 mhos 570 Yes - - -
01/25/2015 01:14 Wet 33.1F 31F 31F 95 2% 0.00 in 0% 5 mhos 562 Yes - - -
01/25/2015 01:04 Wet 33.3F 31F 31F 95 2% 0.00 in 0% 5 mhos 534 Yes - - -
01/25/2015 01:01 Wet 33.4F 31F 31F 95 2% 0.00 in 0% 5 mhos 522 Yes - - -
01/25/2015 00:54 Wet 33.8F 31F 31F 95 2% 0.00 in 0% 5 mhos 487 Yes - - -
01/25/2015 00:46 Wet 34.0F 31F 31F 95 2% 0.00 in 0% 4 mhos 424 Yes - - -
01/25/2015 00:44 Wet 34.0F 31F 32F 95 2% 0.00 in 0% 4 mhos 405 Yes - - -
Date/Time
(MST)
Sf
Temp Chem Water Layer Surface Precipitation
Sf Sub Frz Factor Pct Depth IcePct Cond Salin Type Intens Accum Rate
01/25/2015 00:34 Wet 34.3F 31F 32F 95 1% 0.00 in 0% 2 mhos 189 Yes - - -
01/25/2015 00:31 Wet 34.3F 31F 32F 95 1% 0.00 in 0% 2 mhos 174 Yes - - -
01/25/2015 00:24 Wet 34.3F 31F 31F 95 3% 0.00 in 0% 6 mhos 666 Yes - - -
01/25/2015 00:16 Wet 34.3F 31F 31F 95 3% 0.00 in 0% 6 mhos 674 Yes - - -
01/25/2015 00:14 Wet 34.3F 31F 31F 95 3% 0.00 in 0% 6 mhos 673 Yes - - -
01/25/2015 00:04 Wet 34.5F 31F 31F 95 3% 0.00 in 0% 6 mhos 660 Yes - - -
01/24/2015 23:54 Wet 34.5F 31F 31F 95 2% 0.00 in 0% 6 mhos 633 Yes - - -
01/24/2015 23:46 Wet 34.5F 31F 31F 95 2% 0.00 in 0% 6 mhos 625 Yes - - -
01/24/2015 23:44 Wet 34.3F 31F 31F 95 2% 0.00 in 0% 6 mhos 619 Yes - - -
01/24/2015 23:34 Wet 34.5F 31F 31F 95 2% 0.00 in 0% 5 mhos 566 Yes - - -
01/24/2015 23:31 Wet 34.5F 31F 31F 95 2% 0.00 in 0% 5 mhos 537 Yes - - -
01/24/2015 23:24 Wet 34.3F 31F 32F 95 2% 0.00 in 0% 4 mhos 391 Yes - - -
01/24/2015 23:16 Wet 34.3F 31F 31F 95 3% 0.00 in 0% 7 mhos 727 Yes - - -
01/24/2015 23:13 Wet 34.3F 31F 31F 95 3% 0.00 in 0% 7 mhos 745 Yes - - -
01/24/2015 23:03 Wet 34.2F 31F 31F 95 3% 0.00 in 0% 7 mhos 745 Yes - - -
Date/Time
(MST)
Sf
Temp Chem Water Layer Surface Precipitation
Sf Sub Frz Factor Pct Depth IcePct Cond Salin Type Intens Accum Rate
01/24/2015 23:01 Wet 34.2F 31F 31F 95 3% 0.00 in 0% 7 mhos 748 Yes - - -
01/24/2015 22:53 Wet 34.5F 31F 31F 95 3% 0.00 in 0% 7 mhos 740 Yes - - -
01/24/2015 22:46 Wet 34.7F 31F 31F 95 3% 0.00 in 0% 7 mhos 743 Yes - - -
01/24/2015 22:43 Wet 34.7F 31F 31F 95 3% 0.00 in 0% 7 mhos 740 Yes - - -
01/24/2015 22:33 Wet 34.7F 31F 31F 95 3% 0.00 in 0% 7 mhos 675 Yes - - -
01/24/2015 22:31 Wet 34.7F 31F 31F 95 3% 0.00 in 0% 6 mhos 663 Yes - - -
01/24/2015 22:23 Wet 34.7F 31F 31F 95 2% 0.00 in 0% 6 mhos 621 Yes - - -
01/24/2015 22:16 Wet 34.7F 31F 31F 95 2% 0.00 in 0% 6 mhos 606 Yes - - -
01/24/2015 22:13 Wet 34.7F 31F 31F 95 2% 0.00 in 0% 6 mhos 586 Yes - - -
01/24/2015 22:03 Wet 34.9F 31F 31F 95 2% 0.00 in 0% 5 mhos 533 Yes - - -
01/24/2015 22:01 Wet 34.7F 31F 31F 95 2% 0.00 in 0% 6 mhos 571 Yes - - -
01/24/2015 21:53 Wet 34.7F 31F 32F 95 2% 0.00 in 0% 4 mhos 415 Yes - - -
01/24/2015 21:46 Wet 34.9F 31F 31F 95 3% 0.00 in 0% 6 mhos 671 Yes - - -
01/24/2015 21:43 Wet 34.9F 31F 31F 95 3% 0.00 in 0% 6 mhos 658 Yes - - -
01/24/2015 21:33 Wet 34.9F 31F 31F 95 2% 0.00 in 0% 6 mhos 642 Yes - - -
Date/Time
(MST)
Sf
Temp Chem Water Layer Surface Precipitation
Sf Sub Frz Factor Pct Depth IcePct Cond Salin Type Intens Accum Rate
01/24/2015 21:31 Wet 34.9F 31F 31F 95 2% 0.00 in 0% 6 mhos 636 Yes - - -
01/24/2015 21:23 Wet 34.9F 31F 31F 95 2% 0.00 in 0% 6 mhos 611 Yes - - -
01/24/2015 21:16 Wet 34.9F 31F 31F 95 2% 0.00 in 0% 6 mhos 597 Yes - - -
01/24/2015 21:13 Wet 34.9F 31F 31F 95 2% 0.00 in 0% 6 mhos 586 Yes - - -
01/24/2015 21:03 Wet 34.9F 31F 31F 95 2% 0.00 in 0% 4 mhos 438 Yes - - -
01/24/2015 21:01 Wet 34.9F 31F 32F 95 1% 0.00 in 0% 4 mhos 361 Yes - - -
01/24/2015 20:53 Wet 34.9F 31F 31F 95 3% 0.00 in 0% 6 mhos 662 Yes - - -
01/24/2015 20:46 Wet 34.9F 31F 31F 95 2% 0.00 in 0% 5 mhos 484 Yes - - -
01/24/2015 20:43 Wet 34.9F 31F 31F 95 3% 0.00 in 0% 7 mhos 694 Yes - - -
01/24/2015 20:33 Wet 34.9F 31F 31F 95 3% 0.00 in 0% 7 mhos 690 Yes - - -
01/24/2015 20:31 Wet 34.7F 31F 31F 95 3% 0.00 in 0% 7 mhos 687 Yes - - -
01/24/2015 20:23 Wet 34.7F 31F 31F 95 3% 0.00 in 0% 6 mhos 662 Yes - - -
01/24/2015 20:16 Wet 34.5F 31F 31F 95 3% 0.00 in 0% 7 mhos 676 Yes - - -
01/24/2015 20:13 Wet 34.3F 31F 31F 95 2% 0.00 in 0% 6 mhos 648 Yes - - -
01/24/2015 20:03 Wet 34.5F 31F 31F 95 2% 0.00 in 0% 5 mhos 548 Yes - - -
Date/Time
(MST)
Sf
Temp Chem Water Layer Surface Precipitation
Sf Sub Frz Factor Pct Depth IcePct Cond Salin Type Intens Accum Rate
01/24/2015 20:01 Wet 34.5F 31F 31F 95 2% 0.00 in 0% 5 mhos 509 Yes - - -
01/24/2015 19:53 Wet 34.5F 31F 31F 95 3% 0.00 in 0% 6 mhos 662 Yes - - -
01/24/2015 19:46 Wet 34.7F 31F 31F 95 3% 0.00 in 0% 6 mhos 658 Yes - - -
01/24/2015 19:43 Wet 34.9F 31F 31F 95 3% 0.00 in 0% 6 mhos 657 Yes - - -
01/24/2015 19:33 Wet 35.1F 31F 31F 95 2% 0.00 in 0% 6 mhos 597 Yes - - -
01/24/2015 19:31 Wet 35.1F 31F 31F 95 2% 0.00 in 0% 5 mhos 501 Yes - - -
01/24/2015 19:23 Wet 35.1F 31F 31F 95 2% 0.00 in 0% 6 mhos 605 Yes - - -
01/24/2015 19:16 Wet 34.9F 31F 31F 95 2% 0.00 in 0% 6 mhos 596 Yes - - -
01/24/2015 19:12 Wet 34.9F 31F 31F 95 2% 0.00 in 0% 6 mhos 594 Yes - - -
01/24/2015 19:02 Wet 35.1F 30F 31F 95 2% 0.00 in 0% 6 mhos 571 Yes - - -
01/24/2015 19:01 Wet 35.1F 31F 31F 95 2% 0.00 in 0% 6 mhos 570 Yes - - -
01/24/2015 18:52 Wet 35.4F 31F 31F 95 2% 0.00 in 0% 5 mhos 536 Yes - - -
01/24/2015 18:46 Wet 36.1F 30F 31F 95 2% 0.00 in 0% 6 mhos 588 Yes - - -
01/24/2015 18:42 Wet 36.1F 30F 31F 95 2% 0.00 in 0% 6 mhos 624 Yes - - -
01/24/2015 18:32 Wet 36.3F 30F 31F 95 3% 0.00 in 0% 7 mhos 661 Yes - - -
Date/Time
(MST)
Sf
Temp Chem Water Layer Surface Precipitation
Sf Sub Frz Factor Pct Depth IcePct Cond Salin Type Intens Accum Rate
01/24/2015 18:31 Wet 36.3F 30F 31F 95 2% 0.00 in 0% 6 mhos 641 Yes - - -
01/24/2015 18:22 Wet 36.7F 30F 31F 95 2% 0.00 in 0% 6 mhos 613 Yes - - -
01/24/2015 18:16 Wet 36.9F 30F 31F 95 2% 0.00 in 0% 6 mhos 580 Yes - - -
01/24/2015 18:12 Wet 37.0F 30F 31F 95 3% 0.00 in 0% 7 mhos 679 Yes - - -
01/24/2015 18:02 Wet 37.4F 30F 31F 95 3% 0.00 in 0% 7 mhos 715 Yes - - -
01/24/2015 18:01 Wet 37.4F 30F 31F 95 3% 0.00 in 0% 7 mhos 732 Yes - - -
01/24/2015 17:52 Wet 37.8F 30F 31F 95 3% 0.00 in 0% 7 mhos 708 Yes - - -
01/24/2015 17:46 Wet 37.9F 30F 31F 95 3% 0.00 in 0% 7 mhos 697 Yes - - -
01/24/2015 17:42 Wet 38.3F 30F 31F 95 3% 0.00 in 0% 7 mhos 679 Yes - - -
01/24/2015 17:32 Wet 38.7F 30F 31F 95 2% 0.00 in 0% 6 mhos 575 Yes - - -
01/24/2015 17:31 Wet 38.7F 30F 31F 95 2% 0.00 in 0% 6 mhos 564 Yes - - -
01/24/2015 17:22 Wet 39.2F 30F 32F 95 1% 0.00 in 0% 3 mhos 325 Yes - - -
01/24/2015 17:16 Wet 39.6F 30F 32F 95 0% 0.00 in 0% 1 mhos 124 Yes - - -
01/24/2015 17:12 Wet 39.9F 30F 32F 95 0% 0.00 in 0% 1 mhos 123 Yes - - -
01/24/2015 17:02 Wet 40.3F 30F 32F 95 0% 0.00 in 0% 1 mhos 122 Yes - - -
Date/Time
(MST)
Sf
Temp Chem Water Layer Surface Precipitation
Sf Sub Frz Factor Pct Depth IcePct Cond Salin Type Intens Accum Rate
01/24/2015 17:01 Wet 40.5F 30F 32F 95 0% 0.00 in 0% 1 mhos 121 Yes - - -
01/24/2015 16:52 Wet 41.0F 30F 32F 95 0% 0.00 in 0% 1 mhos 121 None None - -
01/24/2015 16:46 Wet 41.2F 30F 32F 95 0% 0.00 in 0% 1 mhos 121 None None - -
01/24/2015 16:42 Wet 41.5F 30F 32F 95 0% 0.00 in 0% 1 mhos 120 None None - -
01/24/2015 16:32 Wet 41.9F 30F 32F 95 0% 0.00 in 0% 1 mhos 119 None None - -
01/24/2015 16:31 Wet 41.9F 30F 32F 95 0% 0.00 in 0% 1 mhos 118 None None - -
01/24/2015 16:22 Wet 42.3F 30F 32F 95 0% 0.00 in 0% 1 mhos 118 None None - -
01/24/2015 16:16 Wet 42.6F 30F 32F 95 0% 0.00 in 0% 1 mhos 119 None None - -
01/24/2015 16:12 Wet 42.6F 30F 32F 95 0% 0.00 in 0% 1 mhos 107 None None - -
01/24/2015 16:02 Wet 43.0F 30F 32F 95 0% 0.00 in 0% 1 mhos 115 None None - -
01/24/2015 16:01 Wet 43.0F 30F 32F 95 0% 0.00 in 0% 1 mhos 112 None None - -
01/24/2015 15:52 Wet 43.3F 30F 32F 95 0% 0.00 in 0% 1 mhos 109 None None - -
01/24/2015 15:46 Wet 42.4F 30F 32F 95 0% 0.00 in 0% 1 mhos 115 None None - -
01/24/2015 15:42 Wet 42.3F 30F 32F 95 0% 0.00 in 0% 1 mhos 105 None None - -
01/24/2015 15:32 Wet 42.1F 30F 32F 95 0% 0.00 in 0% 1 mhos 112 None None - -
Date/Time
(MST)
Sf
Temp Chem Water Layer Surface Precipitation
Sf Sub Frz Factor Pct Depth IcePct Cond Salin Type Intens Accum Rate
01/24/2015 15:31 Wet 42.3F 30F 32F 95 0% 0.00 in 0% 1 mhos 112 None None - -
01/24/2015 15:22 Wet 42.3F 30F 32F 95 0% 0.00 in 0% 1 mhos 103 None None - -
01/24/2015 15:16 Wet 42.6F 30F 32F 95 0% 0.00 in 0% 1 mhos 103 None None - -
01/24/2015 15:11 Wet 42.8F 30F 32F 95 0% 0.00 in 0% 1 mhos 112 None None - -
01/24/2015 15:01 Wet 43.0F 30F 32F 95 0% 0.00 in 0% 1 mhos 106 None None - -
01/24/2015 15:01 Wet 43.0F 30F 32F 95 0% 0.00 in 0% 1 mhos 109 None None - -
01/24/2015 14:51 Wet 43.0F 30F 32F 95 0% 0.00 in 0% 1 mhos 102 None None - -
01/24/2015 14:46 Wet 43.2F 30F 32F 95 0% 0.00 in 0% 1 mhos 108 None None - -
01/24/2015 14:41 Wet 43.5F 30F 32F 95 0% 0.00 in 0% 1 mhos 110 None None - -
01/24/2015 14:31 Wet 44.1F 30F 32F 95 0% 0.00 in 0% 1 mhos 110 None None - -
01/24/2015 14:31 Wet 44.2F 30F 32F 95 0% 0.00 in 0% 1 mhos 110 None None - -
01/24/2015 14:21 Wet 44.8F 30F 32F 95 0% 0.00 in 0% 1 mhos 111 None None - -
01/24/2015 14:16 Wet 45.0F 30F 32F 95 0% 0.00 in 0% 1 mhos 112 None None - -
01/24/2015 14:11 Wet 45.0F 30F 32F 95 0% 0.00 in 0% 1 mhos 111 None None - -
01/24/2015 14:01 Wet 45.3F 30F 32F 95 0% 0.00 in 0% 1 mhos 109 None None - -
Date/Time
(MST)
Sf
Temp Chem Water Layer Surface Precipitation
Sf Sub Frz Factor Pct Depth IcePct Cond Salin Type Intens Accum Rate
01/24/2015 14:01 Wet 45.3F 30F 32F 95 0% 0.00 in 0% 1 mhos 113 None None - -
01/24/2015 13:51 Wet 45.5F 30F 32F 95 0% 0.00 in 0% 1 mhos 111 None None - -
01/24/2015 13:46 Wet 45.3F 30F 32F 95 0% 0.00 in 0% 1 mhos 117 None None - -
01/24/2015 13:41 Wet 45.1F 30F 32F 95 0% 0.00 in 0% 1 mhos 117 None None - -
01/24/2015 13:31 Wet 45.7F 30F 32F 95 0% 0.00 in 0% 1 mhos 121 None None - -
01/24/2015 13:31 Wet 45.5F 30F 32F 95 0% 0.00 in 0% 1 mhos 122 None None - -
01/24/2015 13:21 Wet 45.9F 30F 32F 95 0% 0.00 in 0% 1 mhos 125 None None - -
01/24/2015 13:16 Wet 46.0F 30F 32F 95 0% 0.00 in 0% 1 mhos 127 Yes - - -
01/24/2015 13:11 Wet 46.0F 30F 32F 95 0% 0.00 in 0% 1 mhos 128 None None - -
01/24/2015 13:01 Wet 45.5F 30F 32F 95 1% 0.00 in 0% 2 mhos 135 None None - -
01/24/2015 13:01 Wet 45.7F 30F 32F 95 1% 0.00 in 0% 2 mhos 134 None None - -
01/24/2015 12:51 Wet 46.4F 30F 32F 95 1% 0.00 in 0% 2 mhos 144 None None - -
01/24/2015 12:46 Wet 46.2F 30F 32F 95 1% 0.00 in 0% 2 mhos 151 None None - -
01/24/2015 12:41 Wet 46.0F 30F 32F 95 1% 0.00 in 0% 2 mhos 161 Yes - - -
01/24/2015 12:31 Wet 45.3F 30F 32F 95 1% 0.00 in 0% 4 mhos 336 Yes - - -
Date/Time
(MST)
Sf
Temp Chem Water Layer Surface Precipitation
Sf Sub Frz Factor Pct Depth IcePct Cond Salin Type Intens Accum Rate
01/24/2015 12:31 Wet 45.3F 30F 32F 95 1% 0.00 in 0% 4 mhos 336 Yes - - -
01/24/2015 12:20 Wet 45.0F 30F 32F 95 1% 0.00 in 0% 4 mhos 355 Yes - - -
01/24/2015 12:16 Wet 45.0F 30F 32F 95 1% 0.00 in 0% 4 mhos 368 Yes - - -
01/24/2015 12:10 Wet 45.7F 30F 32F 95 2% 0.00 in 0% 5 mhos 397 Yes - - -
01/24/2015 12:01 Wet 45.1F 30F 31F 95 2% 0.00 in 0% 5 mhos 440 Yes - - -
01/24/2015 12:00 Wet 45.5F 30F 31F 95 2% 0.00 in 0% 5 mhos 444 Yes - - -
01/24/2015 11:50 Wet 45.0F 30F 31F 95 2% 0.00 in 0% 5 mhos 489 Yes - - -
01/24/2015 11:46 Wet 44.2F 30F 31F 95 2% 0.00 in 0% 5 mhos 485 Yes - - -
01/24/2015 11:40 Wet 43.5F 30F 31F 95 2% 0.00 in 0% 5 mhos 500 Yes - - -
01/24/2015 11:31 Wet 41.2F 30F 31F 95 2% 0.00 in 0% 5 mhos 503 Yes - - -
01/24/2015 11:30 Wet 41.0F 30F 31F 95 2% 0.00 in 0% 5 mhos 500 Yes - - -
01/24/2015 11:20 Wet 39.9F 30F 31F 95 2% 0.00 in 0% 5 mhos 490 Yes - - -
01/24/2015 11:16 Wet 39.9F 30F 31F 95 2% 0.00 in 0% 6 mhos 538 Yes - - -
Change End Date:
Copyright © 1998-2005 Surface Systems, Inc.
All Rights Reserved
Send comments about the data to:
SCAN Web ® is a registered trademark of Surface Systems, Inc.
SCAN Web Version 5.6